sensor_id;sensor_type;location;lat;lon;timestamp;pressure;altitude;pressure_sealevel;temperature;humidity
65127;BME280;51927;49.080;19.652;2023-03-13T00:00:05;94223.09;;;23.05;42.28
65127;BME280;51927;49.080;19.652;2023-03-13T00:00:11;94221.19;;;23.05;42.49
65127;BME280;51927;49.080;19.652;2023-03-13T00:00:16;94217.75;;;23.05;42.30
65127;BME280;51927;49.080;19.652;2023-03-13T00:00:22;94223.84;;;23.05;42.62
65127;BME280;51927;49.080;19.652;2023-03-13T00:00:27;94220.41;;;23.05;42.72
65127;BME280;51927;49.080;19.652;2023-03-13T00:00:32;94218.50;;;23.05;42.62
65127;BME280;51927;49.080;19.652;2023-03-13T00:00:37;94218.50;;;23.05;42.69
65127;BME280;51927;49.080;19.652;2023-03-13T00:00:43;94223.84;;;23.05;42.34
65127;BME280;51927;49.080;19.652;2023-03-13T00:00:48;94217.75;;;23.05;42.70
65127;BME280;51927;49.080;19.652;2023-03-13T00:00:54;94217.75;;;23.05;42.40
65127;BME280;51927;49.080;19.652;2023-03-13T00:01:00;94228.41;;;23.05;42.23
65127;BME280;51927;49.080;19.652;2023-03-13T00:01:10;94222.00;;;23.06;42.29
65127;BME280;51927;49.080;19.652;2023-03-13T00:01:20;94224.66;;;23.06;42.29
65127;BME280;51927;49.080;19.652;2023-03-13T00:01:30;94224.66;;;23.06;42.39
65127;BME280;51927;49.080;19.652;2023-03-13T00:01:37;94223.84;;;23.05;42.34
65127;BME280;51927;49.080;19.652;2023-03-13T00:01:47;94221.19;;;23.05;42.68
65127;BME280;51927;49.080;19.652;2023-03-13T00:01:52;94217.75;;;23.05;42.49
65127;BME280;51927;49.080;19.652;2023-03-13T00:01:57;94223.09;;;23.05;42.49
65127;BME280;51927;49.080;19.652;2023-03-13T00:02:02;94222.00;;;23.06;42.31
65127;BME280;51927;49.080;19.652;2023-03-13T00:02:08;94217.75;;;23.05;42.25
65127;BME280;51927;49.080;19.652;2023-03-13T00:02:13;94217.75;;;23.05;42.60
65127;BME280;51927;49.080;19.652;2023-03-13T00:02:18;94220.41;;;23.05;42.78
65127;BME280;51927;49.080;19.652;2023-03-13T00:02:23;94224.16;;;23.04;42.32
65127;BME280;51927;49.080;19.652;2023-03-13T00:02:28;94221.19;;;23.05;42.49
65127;BME280;51927;49.080;19.652;2023-03-13T00:02:34;94216.97;;;23.04;42.30
65127;BME280;51927;49.080;19.652;2023-03-13T00:02:39;94217.75;;;23.05;42.55
65127;BME280;51927;49.080;19.652;2023-03-13T00:02:44;94220.41;;;23.05;42.29
65127;BME280;51927;49.080;19.652;2023-03-13T00:02:49;94210.81;;;23.04;42.24
65127;BME280;51927;49.080;19.652;2023-03-13T00:02:54;94217.75;;;23.05;42.33
65127;BME280;51927;49.080;19.652;2023-03-13T00:02:59;94217.75;;;23.05;42.61
65127;BME280;51927;49.080;19.652;2023-03-13T00:03:05;94220.41;;;23.05;42.43
65127;BME280;51927;49.080;19.652;2023-03-13T00:03:11;94216.97;;;23.04;42.34
65127;BME280;51927;49.080;19.652;2023-03-13T00:03:16;94223.84;;;23.05;42.36
65127;BME280;51927;49.080;19.652;2023-03-13T00:03:21;94219.63;;;23.04;42.64
65127;BME280;51927;49.080;19.652;2023-03-13T00:03:26;94215.06;;;23.05;42.30
65127;BME280;51927;49.080;19.652;2023-03-13T00:03:32;94212.41;;;23.05;42.44
65127;BME280;51927;49.080;19.652;2023-03-13T00:03:37;94221.19;;;23.05;42.65
65127;BME280;51927;49.080;19.652;2023-03-13T00:03:42;94217.75;;;23.05;42.37
65127;BME280;51927;49.080;19.652;2023-03-13T00:03:47;94218.50;;;23.05;42.60
65127;BME280;51927;49.080;19.652;2023-03-13T00:03:53;94217.75;;;23.05;42.23
65127;BME280;51927;49.080;19.652;2023-03-13T00:03:59;94216.16;;;23.04;42.66
65127;BME280;51927;49.080;19.652;2023-03-13T00:04:05;94212.41;;;23.05;42.34
65127;BME280;51927;49.080;19.652;2023-03-13T00:04:10;94217.75;;;23.05;42.22
65127;BME280;51927;49.080;19.652;2023-03-13T00:04:15;94216.16;;;23.04;42.22
65127;BME280;51927;49.080;19.652;2023-03-13T00:04:20;94215.84;;;23.05;42.49
65127;BME280;51927;49.080;19.652;2023-03-13T00:04:25;94215.84;;;23.05;42.62
65127;BME280;51927;49.080;19.652;2023-03-13T00:04:31;94210.50;;;23.05;42.28
65127;BME280;51927;49.080;19.652;2023-03-13T00:04:36;94210.81;;;23.04;42.27
65127;BME280;51927;49.080;19.652;2023-03-13T00:04:41;94216.66;;;23.06;42.65
65127;BME280;51927;49.080;19.652;2023-03-13T00:04:46;94223.84;;;23.05;42.28
65127;BME280;51927;49.080;19.652;2023-03-13T00:04:51;94219.63;;;23.04;42.57
65127;BME280;51927;49.080;19.652;2023-03-13T00:04:57;94219.31;;;23.06;42.30
65127;BME280;51927;49.080;19.652;2023-03-13T00:05:02;94218.84;;;23.04;42.37
65127;BME280;51927;49.080;19.652;2023-03-13T00:05:07;94217.75;;;23.05;42.43
65127;BME280;51927;49.080;19.652;2023-03-13T00:05:13;94209.72;;;23.05;42.27
65127;BME280;51927;49.080;19.652;2023-03-13T00:05:18;94213.50;;;23.04;42.38
65127;BME280;51927;49.080;19.652;2023-03-13T00:05:23;94219.31;;;23.06;42.40
65127;BME280;51927;49.080;19.652;2023-03-13T00:05:28;94217.75;;;23.05;42.49
65127;BME280;51927;49.080;19.652;2023-03-13T00:05:34;94214.28;;;23.04;42.54
65127;BME280;51927;49.080;19.652;2023-03-13T00:05:39;94217.75;;;23.05;42.56
65127;BME280;51927;49.080;19.652;2023-03-13T00:05:44;94221.50;;;23.04;42.60
65127;BME280;51927;49.080;19.652;2023-03-13T00:05:54;94217.75;;;23.05;42.39
65127;BME280;51927;49.080;19.652;2023-03-13T00:05:59;94216.97;;;23.04;42.60
65127;BME280;51927;49.080;19.652;2023-03-13T00:06:04;94218.84;;;23.04;42.60
65127;BME280;51927;49.080;19.652;2023-03-13T00:06:10;94216.16;;;23.04;42.29
65127;BME280;51927;49.080;19.652;2023-03-13T00:06:15;94223.09;;;23.05;42.44
65127;BME280;51927;49.080;19.652;2023-03-13T00:06:28;94221.50;;;23.04;42.57
65127;BME280;51927;49.080;19.652;2023-03-13T00:06:36;94219.63;;;23.04;42.37
65127;BME280;51927;49.080;19.652;2023-03-13T00:06:42;94217.75;;;23.05;42.78
65127;BME280;51927;49.080;19.652;2023-03-13T00:06:47;94216.16;;;23.04;42.50
65127;BME280;51927;49.080;19.652;2023-03-13T00:06:52;94215.38;;;23.03;42.23
65127;BME280;51927;49.080;19.652;2023-03-13T00:06:57;94213.50;;;23.04;42.25
65127;BME280;51927;49.080;19.652;2023-03-13T00:07:03;94213.50;;;23.04;42.60
65127;BME280;51927;49.080;19.652;2023-03-13T00:07:08;94213.50;;;23.04;42.56
65127;BME280;51927;49.080;19.652;2023-03-13T00:07:14;94210.81;;;23.04;42.38
65127;BME280;51927;49.080;19.652;2023-03-13T00:07:20;94207.06;;;23.05;42.30
65127;BME280;51927;49.080;19.652;2023-03-13T00:07:25;94216.16;;;23.04;42.63
65127;BME280;51927;49.080;19.652;2023-03-13T00:07:30;94209.72;;;23.05;42.29
65127;BME280;51927;49.080;19.652;2023-03-13T00:07:35;94213.50;;;23.04;42.61
65127;BME280;51927;49.080;19.652;2023-03-13T00:07:40;94210.81;;;23.04;42.44
65127;BME280;51927;49.080;19.652;2023-03-13T00:07:46;94215.06;;;23.05;42.34
65127;BME280;51927;49.080;19.652;2023-03-13T00:07:51;94215.06;;;23.05;42.59
65127;BME280;51927;49.080;19.652;2023-03-13T00:07:56;94208.97;;;23.04;42.35
65127;BME280;51927;49.080;19.652;2023-03-13T00:08:01;94210.03;;;23.03;42.31
65127;BME280;51927;49.080;19.652;2023-03-13T00:08:06;94210.81;;;23.04;42.35
65127;BME280;51927;49.080;19.652;2023-03-13T00:08:12;94211.63;;;23.04;42.24
65127;BME280;51927;49.080;19.652;2023-03-13T00:08:17;94218.84;;;23.04;42.50
65127;BME280;51927;49.080;19.652;2023-03-13T00:08:23;94211.63;;;23.04;42.36
65127;BME280;51927;49.080;19.652;2023-03-13T00:08:28;94217.75;;;23.05;42.43
65127;BME280;51927;49.080;19.652;2023-03-13T00:08:34;94209.72;;;23.05;42.47
65127;BME280;51927;49.080;19.652;2023-03-13T00:08:39;94210.81;;;23.04;42.66
65127;BME280;51927;49.080;19.652;2023-03-13T00:08:44;94210.81;;;23.04;42.34
65127;BME280;51927;49.080;19.652;2023-03-13T00:08:49;94212.41;;;23.05;42.62
65127;BME280;51927;49.080;19.652;2023-03-13T00:08:55;94211.63;;;23.04;42.44
65127;BME280;51927;49.080;19.652;2023-03-13T00:09:00;94209.72;;;23.05;42.48
65127;BME280;51927;49.080;19.652;2023-03-13T00:09:07;94214.28;;;23.04;42.49
65127;BME280;51927;49.080;19.652;2023-03-13T00:09:13;94216.97;;;23.04;42.34
65127;BME280;51927;49.080;19.652;2023-03-13T00:09:19;94213.50;;;23.04;42.36
65127;BME280;51927;49.080;19.652;2023-03-13T00:09:24;94208.97;;;23.04;42.51
65127;BME280;51927;49.080;19.652;2023-03-13T00:09:31;94212.41;;;23.05;42.35
65127;BME280;51927;49.080;19.652;2023-03-13T00:09:36;94215.06;;;23.05;42.29
65127;BME280;51927;49.080;19.652;2023-03-13T00:09:41;94216.16;;;23.04;42.44
65127;BME280;51927;49.080;19.652;2023-03-13T00:09:46;94210.81;;;23.04;42.38
65127;BME280;51927;49.080;19.652;2023-03-13T00:09:51;94210.81;;;23.04;42.34
65127;BME280;51927;49.080;19.652;2023-03-13T00:09:57;94210.81;;;23.04;42.55
65127;BME280;51927;49.080;19.652;2023-03-13T00:10:02;94210.81;;;23.04;42.43
65127;BME280;51927;49.080;19.652;2023-03-13T00:10:07;94220.72;;;23.03;42.27
65127;BME280;51927;49.080;19.652;2023-03-13T00:10:13;94215.06;;;23.05;42.50
65127;BME280;51927;49.080;19.652;2023-03-13T00:10:18;94211.63;;;23.04;42.60
65127;BME280;51927;49.080;19.652;2023-03-13T00:10:23;94213.50;;;23.04;42.37
65127;BME280;51927;49.080;19.652;2023-03-13T00:10:28;94216.97;;;23.04;42.27
65127;BME280;51927;49.080;19.652;2023-03-13T00:10:37;94216.16;;;23.04;42.62
65127;BME280;51927;49.080;19.652;2023-03-13T00:10:42;94212.41;;;23.05;42.36
65127;BME280;51927;49.080;19.652;2023-03-13T00:10:47;94213.50;;;23.04;42.34
65127;BME280;51927;49.080;19.652;2023-03-13T00:10:53;94218.06;;;23.03;42.28
65127;BME280;51927;49.080;19.652;2023-03-13T00:11:01;94215.06;;;23.05;42.33
65127;BME280;51927;49.080;19.652;2023-03-13T00:11:07;94216.16;;;23.04;42.37
65127;BME280;51927;49.080;19.652;2023-03-13T00:11:12;94210.81;;;23.04;42.37
65127;BME280;51927;49.080;19.652;2023-03-13T00:11:19;94210.81;;;23.04;42.28
65127;BME280;51927;49.080;19.652;2023-03-13T00:11:24;94215.06;;;23.05;42.37
65127;BME280;51927;49.080;19.652;2023-03-13T00:11:30;94216.16;;;23.04;42.73
65127;BME280;51927;49.080;19.652;2023-03-13T00:11:35;94216.16;;;23.04;42.56
65127;BME280;51927;49.080;19.652;2023-03-13T00:11:41;94214.28;;;23.04;42.42
65127;BME280;51927;49.080;19.652;2023-03-13T00:11:46;94216.97;;;23.04;42.48
65127;BME280;51927;49.080;19.652;2023-03-13T00:11:51;94211.63;;;23.04;42.57
65127;BME280;51927;49.080;19.652;2023-03-13T00:11:57;94221.50;;;23.04;42.45
65127;BME280;51927;49.080;19.652;2023-03-13T00:12:02;94220.72;;;23.03;42.61
65127;BME280;51927;49.080;19.652;2023-03-13T00:12:07;94222.31;;;23.04;42.63
65127;BME280;51927;49.080;19.652;2023-03-13T00:12:13;94218.84;;;23.04;42.79
65127;BME280;51927;49.080;19.652;2023-03-13T00:12:18;94216.16;;;23.04;42.43
65127;BME280;51927;49.080;19.652;2023-03-13T00:12:23;94214.63;;;23.03;42.71
65127;BME280;51927;49.080;19.652;2023-03-13T00:12:29;94222.63;;;23.03;42.34
65127;BME280;51927;49.080;19.652;2023-03-13T00:12:34;94220.41;;;23.05;42.63
65127;BME280;51927;49.080;19.652;2023-03-13T00:12:39;94220.72;;;23.03;42.66
65127;BME280;51927;49.080;19.652;2023-03-13T00:12:44;94215.38;;;23.03;42.41
65127;BME280;51927;49.080;19.652;2023-03-13T00:12:50;94218.06;;;23.03;42.48
65127;BME280;51927;49.080;19.652;2023-03-13T00:12:55;94226.06;;;23.03;42.80
65127;BME280;51927;49.080;19.652;2023-03-13T00:13:00;94215.38;;;23.03;42.42
65127;BME280;51927;49.080;19.652;2023-03-13T00:13:06;94220.72;;;23.03;42.60
65127;BME280;51927;49.080;19.652;2023-03-13T00:13:12;94214.63;;;23.03;42.48
65127;BME280;51927;49.080;19.652;2023-03-13T00:13:17;94226.06;;;23.03;42.42
65127;BME280;51927;49.080;19.652;2023-03-13T00:13:22;94224.16;;;23.04;42.56
65127;BME280;51927;49.080;19.652;2023-03-13T00:13:27;94221.50;;;23.04;42.82
65127;BME280;51927;49.080;19.652;2023-03-13T00:13:33;94223.41;;;23.03;42.77
65127;BME280;51927;49.080;19.652;2023-03-13T00:13:38;94223.41;;;23.03;42.58
65127;BME280;51927;49.080;19.652;2023-03-13T00:13:43;94218.84;;;23.04;42.42
65127;BME280;51927;49.080;19.652;2023-03-13T00:13:52;94214.63;;;23.03;42.39
65127;BME280;51927;49.080;19.652;2023-03-13T00:13:58;94219.94;;;23.03;42.77
65127;BME280;51927;49.080;19.652;2023-03-13T00:14:05;94220.72;;;23.03;42.38
65127;BME280;51927;49.080;19.652;2023-03-13T00:14:10;94221.50;;;23.04;42.43
65127;BME280;51927;49.080;19.652;2023-03-13T00:14:16;94217.28;;;23.03;42.60
65127;BME280;51927;49.080;19.652;2023-03-13T00:14:21;94222.63;;;23.03;42.38
65127;BME280;51927;49.080;19.652;2023-03-13T00:14:26;94214.63;;;23.03;42.45
65127;BME280;51927;49.080;19.652;2023-03-13T00:14:31;94218.84;;;23.04;42.63
65127;BME280;51927;49.080;19.652;2023-03-13T00:14:36;94214.63;;;23.03;42.64
65127;BME280;51927;49.080;19.652;2023-03-13T00:14:41;94220.72;;;23.03;42.71
65127;BME280;51927;49.080;19.652;2023-03-13T00:14:47;94214.63;;;23.03;42.41
65127;BME280;51927;49.080;19.652;2023-03-13T00:14:52;94218.84;;;23.04;42.69
65127;BME280;51927;49.080;19.652;2023-03-13T00:14:57;94215.69;;;23.02;42.46
65127;BME280;51927;49.080;19.652;2023-03-13T00:15:02;94219.16;;;23.02;42.42
65127;BME280;51927;49.080;19.652;2023-03-13T00:15:08;94217.28;;;23.03;42.48
65127;BME280;51927;49.080;19.652;2023-03-13T00:15:13;94217.28;;;23.03;42.49
65127;BME280;51927;49.080;19.652;2023-03-13T00:15:18;94217.28;;;23.03;42.43
65127;BME280;51927;49.080;19.652;2023-03-13T00:15:23;94217.28;;;23.03;42.57
65127;BME280;51927;49.080;19.652;2023-03-13T00:15:29;94216.16;;;23.04;42.45
65127;BME280;51927;49.080;19.652;2023-03-13T00:15:34;94208.16;;;23.04;42.42
65127;BME280;51927;49.080;19.652;2023-03-13T00:15:39;94216.16;;;23.04;42.34
65127;BME280;51927;49.080;19.652;2023-03-13T00:15:44;94220.72;;;23.03;42.40
65127;BME280;51927;49.080;19.652;2023-03-13T00:15:57;94225.28;;;23.03;42.37
65127;BME280;51927;49.080;19.652;2023-03-13T00:16:07;94210.81;;;23.04;42.56
65127;BME280;51927;49.080;19.652;2023-03-13T00:16:13;94218.84;;;23.04;42.36
65127;BME280;51927;49.080;19.652;2023-03-13T00:16:19;94220.72;;;23.03;42.75
65127;BME280;51927;49.080;19.652;2023-03-13T00:16:24;94212.72;;;23.03;42.35
65127;BME280;51927;49.080;19.652;2023-03-13T00:16:31;94213.50;;;23.04;42.60
65127;BME280;51927;49.080;19.652;2023-03-13T00:16:38;94212.72;;;23.03;42.63
65127;BME280;51927;49.080;19.652;2023-03-13T00:16:43;94216.16;;;23.04;42.69
65127;BME280;51927;49.080;19.652;2023-03-13T00:16:48;94209.28;;;23.03;42.37
65127;BME280;51927;49.080;19.652;2023-03-13T00:16:53;94212.72;;;23.03;42.37
65127;BME280;51927;49.080;19.652;2023-03-13T00:16:59;94210.81;;;23.04;42.75
65127;BME280;51927;49.080;19.652;2023-03-13T00:17:04;94210.81;;;23.04;42.57
65127;BME280;51927;49.080;19.652;2023-03-13T00:17:10;94213.50;;;23.04;42.45
65127;BME280;51927;49.080;19.652;2023-03-13T00:17:15;94217.28;;;23.03;42.58
65127;BME280;51927;49.080;19.652;2023-03-13T00:17:20;94211.94;;;23.03;42.69
65127;BME280;51927;49.080;19.652;2023-03-13T00:17:26;94204.69;;;23.03;42.74
65127;BME280;51927;49.080;19.652;2023-03-13T00:17:31;94203.94;;;23.03;42.57
65127;BME280;51927;49.080;19.652;2023-03-13T00:17:37;94210.81;;;23.04;42.66
65127;BME280;51927;49.080;19.652;2023-03-13T00:17:42;94208.47;;;23.02;42.47
65127;BME280;51927;49.080;19.652;2023-03-13T00:17:47;94214.28;;;23.04;42.64
65127;BME280;51927;49.080;19.652;2023-03-13T00:17:52;94210.81;;;23.04;42.66
65127;BME280;51927;49.080;19.652;2023-03-13T00:17:58;94210.03;;;23.03;42.64
65127;BME280;51927;49.080;19.652;2023-03-13T00:18:03;94210.03;;;23.03;42.84
65127;BME280;51927;49.080;19.652;2023-03-13T00:18:08;94216.16;;;23.04;42.76
65127;BME280;51927;49.080;19.652;2023-03-13T00:18:14;94210.03;;;23.03;42.53
65127;BME280;51927;49.080;19.652;2023-03-13T00:18:19;94210.03;;;23.03;42.45
65127;BME280;51927;49.080;19.652;2023-03-13T00:18:24;94206.59;;;23.03;42.58
65127;BME280;51927;49.080;19.652;2023-03-13T00:18:29;94208.16;;;23.04;42.63
65127;BME280;51927;49.080;19.652;2023-03-13T00:18:34;94208.16;;;23.04;42.48
65127;BME280;51927;49.080;19.652;2023-03-13T00:18:44;94206.59;;;23.03;42.84
65127;BME280;51927;49.080;19.652;2023-03-13T00:18:50;94209.28;;;23.03;42.37
65127;BME280;51927;49.080;19.652;2023-03-13T00:18:56;94210.81;;;23.04;42.60
65127;BME280;51927;49.080;19.652;2023-03-13T00:19:02;94210.03;;;23.03;42.45
65127;BME280;51927;49.080;19.652;2023-03-13T00:19:07;94212.72;;;23.03;42.88
65127;BME280;51927;49.080;19.652;2023-03-13T00:19:13;94203.94;;;23.03;42.68
65127;BME280;51927;49.080;19.652;2023-03-13T00:19:19;94210.03;;;23.03;42.89
65127;BME280;51927;49.080;19.652;2023-03-13T00:19:24;94213.81;;;23.02;42.62
65127;BME280;51927;49.080;19.652;2023-03-13T00:19:29;94206.59;;;23.03;42.44
65127;BME280;51927;49.080;19.652;2023-03-13T00:19:34;94203.94;;;23.03;42.77
65127;BME280;51927;49.080;19.652;2023-03-13T00:19:39;94218.06;;;23.03;42.66
65127;BME280;51927;49.080;19.652;2023-03-13T00:19:44;94211.94;;;23.03;42.71
65127;BME280;51927;49.080;19.652;2023-03-13T00:19:50;94209.28;;;23.03;42.68
65127;BME280;51927;49.080;19.652;2023-03-13T00:19:55;94208.16;;;23.04;42.79
65127;BME280;51927;49.080;19.652;2023-03-13T00:20:00;94213.03;;;23.02;42.69
65127;BME280;51927;49.080;19.652;2023-03-13T00:20:05;94203.94;;;23.03;42.60
65127;BME280;51927;49.080;19.652;2023-03-13T00:20:11;94202.34;;;23.02;42.45
65127;BME280;51927;49.080;19.652;2023-03-13T00:20:16;94203.13;;;23.02;42.86
65127;BME280;51927;49.080;19.652;2023-03-13T00:20:21;94209.28;;;23.03;42.49
65127;BME280;51927;49.080;19.652;2023-03-13T00:20:26;94208.47;;;23.02;42.50
65127;BME280;51927;49.080;19.652;2023-03-13T00:20:32;94211.94;;;23.03;42.70
65127;BME280;51927;49.080;19.652;2023-03-13T00:20:37;94207.69;;;23.02;42.75
65127;BME280;51927;49.080;19.652;2023-03-13T00:20:42;94211.13;;;23.02;42.41
65127;BME280;51927;49.080;19.652;2023-03-13T00:20:47;94211.13;;;23.02;42.43
65127;BME280;51927;49.080;19.652;2023-03-13T00:20:58;94203.13;;;23.02;42.38
65127;BME280;51927;49.080;19.652;2023-03-13T00:21:05;94207.69;;;23.02;42.64
65127;BME280;51927;49.080;19.652;2023-03-13T00:21:10;94205.03;;;23.02;42.74
65127;BME280;51927;49.080;19.652;2023-03-13T00:21:16;94209.28;;;23.03;42.37
65127;BME280;51927;49.080;19.652;2023-03-13T00:21:22;94208.47;;;23.02;42.48
65127;BME280;51927;49.080;19.652;2023-03-13T00:21:28;94206.59;;;23.03;42.84
65127;BME280;51927;49.080;19.652;2023-03-13T00:21:33;94209.28;;;23.03;42.45
65127;BME280;51927;49.080;19.652;2023-03-13T00:21:39;94207.69;;;23.02;42.78
65127;BME280;51927;49.080;19.652;2023-03-13T00:21:45;94207.69;;;23.02;42.69
65127;BME280;51927;49.080;19.652;2023-03-13T00:21:50;94214.63;;;23.03;42.63
65127;BME280;51927;49.080;19.652;2023-03-13T00:21:55;94208.47;;;23.02;42.75
65127;BME280;51927;49.080;19.652;2023-03-13T00:22:00;94202.34;;;23.02;42.78
65127;BME280;51927;49.080;19.652;2023-03-13T00:22:06;94211.94;;;23.03;42.82
65127;BME280;51927;49.080;19.652;2023-03-13T00:22:11;94210.03;;;23.03;42.61
65127;BME280;51927;49.080;19.652;2023-03-13T00:22:16;94206.59;;;23.03;42.88
65127;BME280;51927;49.080;19.652;2023-03-13T00:22:21;94208.47;;;23.02;42.56
65127;BME280;51927;49.080;19.652;2023-03-13T00:22:26;94205.03;;;23.02;42.48
65127;BME280;51927;49.080;19.652;2023-03-13T00:22:31;94209.28;;;23.03;42.69
65127;BME280;51927;49.080;19.652;2023-03-13T00:22:37;94213.81;;;23.02;42.52
65127;BME280;51927;49.080;19.652;2023-03-13T00:22:42;94208.47;;;23.02;42.47
65127;BME280;51927;49.080;19.652;2023-03-13T00:22:47;94209.28;;;23.03;42.43
65127;BME280;51927;49.080;19.652;2023-03-13T00:22:52;94211.94;;;23.03;42.80
65127;BME280;51927;49.080;19.652;2023-03-13T00:22:57;94209.28;;;23.03;42.43
65127;BME280;51927;49.080;19.652;2023-03-13T00:23:02;94208.47;;;23.02;42.44
65127;BME280;51927;49.080;19.652;2023-03-13T00:23:08;94211.94;;;23.03;42.52
65127;BME280;51927;49.080;19.652;2023-03-13T00:23:13;94206.59;;;23.03;42.71
65127;BME280;51927;49.080;19.652;2023-03-13T00:23:18;94213.81;;;23.02;42.49
65127;BME280;51927;49.080;19.652;2023-03-13T00:23:23;94208.47;;;23.02;42.38
65127;BME280;51927;49.080;19.652;2023-03-13T00:23:28;94211.94;;;23.03;42.57
65127;BME280;51927;49.080;19.652;2023-03-13T00:23:35;94214.63;;;23.03;42.55
65127;BME280;51927;49.080;19.652;2023-03-13T00:23:40;94214.63;;;23.03;42.86
65127;BME280;51927;49.080;19.652;2023-03-13T00:23:45;94206.59;;;23.03;42.83
65127;BME280;51927;49.080;19.652;2023-03-13T00:23:51;94204.69;;;23.03;42.58
65127;BME280;51927;49.080;19.652;2023-03-13T00:23:57;94204.69;;;23.03;42.69
65127;BME280;51927;49.080;19.652;2023-03-13T00:24:02;94204.69;;;23.03;42.56
65127;BME280;51927;49.080;19.652;2023-03-13T00:24:09;94215.38;;;23.03;42.87
65127;BME280;51927;49.080;19.652;2023-03-13T00:24:14;94203.94;;;23.03;42.78
65127;BME280;51927;49.080;19.652;2023-03-13T00:24:20;94206.59;;;23.03;42.71
65127;BME280;51927;49.080;19.652;2023-03-13T00:24:25;94211.94;;;23.03;42.47
65127;BME280;51927;49.080;19.652;2023-03-13T00:24:30;94209.28;;;23.03;42.99
65127;BME280;51927;49.080;19.652;2023-03-13T00:24:37;94213.03;;;23.02;42.50
65127;BME280;51927;49.080;19.652;2023-03-13T00:24:44;94207.38;;;23.03;42.75
65127;BME280;51927;49.080;19.652;2023-03-13T00:24:49;94210.03;;;23.03;42.93
65127;BME280;51927;49.080;19.652;2023-03-13T00:24:55;94206.59;;;23.03;42.76
65127;BME280;51927;49.080;19.652;2023-03-13T00:25:00;94208.47;;;23.02;42.52
65127;BME280;51927;49.080;19.652;2023-03-13T00:25:05;94209.28;;;23.03;42.50
65127;BME280;51927;49.080;19.652;2023-03-13T00:25:10;94208.47;;;23.02;42.54
65127;BME280;51927;49.080;19.652;2023-03-13T00:25:16;94209.28;;;23.03;42.47
65127;BME280;51927;49.080;19.652;2023-03-13T00:25:21;94209.28;;;23.03;42.63
65127;BME280;51927;49.080;19.652;2023-03-13T00:25:26;94209.28;;;23.03;42.47
65127;BME280;51927;49.080;19.652;2023-03-13T00:25:31;94209.28;;;23.03;42.55
65127;BME280;51927;49.080;19.652;2023-03-13T00:25:36;94211.13;;;23.02;42.57
65127;BME280;51927;49.080;19.652;2023-03-13T00:25:41;94210.03;;;23.03;42.86
65127;BME280;51927;49.080;19.652;2023-03-13T00:25:47;94208.47;;;23.02;42.64
65127;BME280;51927;49.080;19.652;2023-03-13T00:25:56;94213.81;;;23.02;42.56
65127;BME280;51927;49.080;19.652;2023-03-13T00:26:03;94208.47;;;23.02;42.54
65127;BME280;51927;49.080;19.652;2023-03-13T00:26:10;94208.47;;;23.02;42.80
65127;BME280;51927;49.080;19.652;2023-03-13T00:26:17;94213.03;;;23.02;42.50
65127;BME280;51927;49.080;19.652;2023-03-13T00:26:23;94213.81;;;23.02;42.76
65127;BME280;51927;49.080;19.652;2023-03-13T00:26:29;94217.28;;;23.03;42.83
65127;BME280;51927;49.080;19.652;2023-03-13T00:26:34;94210.34;;;23.02;42.87
65127;BME280;51927;49.080;19.652;2023-03-13T00:26:39;94207.69;;;23.02;42.97
65127;BME280;51927;49.080;19.652;2023-03-13T00:26:45;94210.34;;;23.02;42.72
65127;BME280;51927;49.080;19.652;2023-03-13T00:26:50;94211.13;;;23.02;42.88
65127;BME280;51927;49.080;19.652;2023-03-13T00:26:55;94210.03;;;23.03;42.51
65127;BME280;51927;49.080;19.652;2023-03-13T00:27:00;94211.94;;;23.03;42.92
65127;BME280;51927;49.080;19.652;2023-03-13T00:27:07;94211.13;;;23.02;42.60
65127;BME280;51927;49.080;19.652;2023-03-13T00:27:12;94213.03;;;23.02;42.52
65127;BME280;51927;49.080;19.652;2023-03-13T00:27:17;94213.03;;;23.02;42.62
65127;BME280;51927;49.080;19.652;2023-03-13T00:27:22;94205.78;;;23.02;42.62
65127;BME280;51927;49.080;19.652;2023-03-13T00:27:31;94206.91;;;23.01;42.61
65127;BME280;51927;49.080;19.652;2023-03-13T00:27:36;94213.81;;;23.02;42.54
65127;BME280;51927;49.080;19.652;2023-03-13T00:27:41;94214.63;;;23.03;42.83
65127;BME280;51927;49.080;19.652;2023-03-13T00:27:46;94209.59;;;23.01;42.49
65127;BME280;51927;49.080;19.652;2023-03-13T00:27:52;94208.47;;;23.02;42.70
65127;BME280;51927;49.080;19.652;2023-03-13T00:27:57;94210.34;;;23.02;42.63
65127;BME280;51927;49.080;19.652;2023-03-13T00:28:02;94213.81;;;23.02;42.58
65127;BME280;51927;49.080;19.652;2023-03-13T00:28:07;94213.03;;;23.02;42.57
65127;BME280;51927;49.080;19.652;2023-03-13T00:28:12;94206.09;;;23.01;42.62
65127;BME280;51927;49.080;19.652;2023-03-13T00:28:18;94214.94;;;23.01;42.58
65127;BME280;51927;49.080;19.652;2023-03-13T00:28:23;94207.69;;;23.02;42.59
65127;BME280;51927;49.080;19.652;2023-03-13T00:28:28;94213.03;;;23.02;42.58
65127;BME280;51927;49.080;19.652;2023-03-13T00:28:34;94209.59;;;23.01;42.81
65127;BME280;51927;49.080;19.652;2023-03-13T00:28:41;94207.69;;;23.02;42.61
65127;BME280;51927;49.080;19.652;2023-03-13T00:28:46;94210.34;;;23.02;42.62
65127;BME280;51927;49.080;19.652;2023-03-13T00:28:52;94201.56;;;23.01;42.64
65127;BME280;51927;49.080;19.652;2023-03-13T00:28:58;94201.56;;;23.01;42.62
65127;BME280;51927;49.080;19.652;2023-03-13T00:29:03;94198.91;;;23.01;42.62
65127;BME280;51927;49.080;19.652;2023-03-13T00:29:08;94200.78;;;23.01;42.67
65127;BME280;51927;49.080;19.652;2023-03-13T00:29:13;94207.69;;;23.02;42.97
65127;BME280;51927;49.080;19.652;2023-03-13T00:29:19;94201.56;;;23.01;42.63
65127;BME280;51927;49.080;19.652;2023-03-13T00:29:24;94206.91;;;23.01;43.07
65127;BME280;51927;49.080;19.652;2023-03-13T00:29:29;94202.34;;;23.02;42.72